Flight Track Log - Related Links

Times and Time Zones

All times are in EST time to prevent confusion due to time zone crossing. See the EJA396 flight status page for this flight to view local times or setup timezone preferences in your user account.

Time Position Orientation Groundspeed Altitude Reporting Facility
EST Latitude Longitude Course Direction KTS MPH feet Rate Location/Type
Sun 12:26:24 PM 27.6539 -80.4789 264° West 349 402 3,700  Level Miami Center
Sun 12:27:24 PM 27.6481 -80.5419 264° West 255 293 8,300 2,650 Climbing Miami Center
Sun 12:28:24 PM 27.5967 -80.5967 223° Southwest 234 269 9,000 1,250 Climbing Miami Center
Sun 12:29:24 PM 27.5408 -80.6556 223° Southwest 258 297 10,800 2,500 Climbing Miami Center
Sun 12:30:24 PM 27.4894 -80.7078 222° Southwest 251 289 14,000 1,600 Climbing Miami Center
Sun 12:31:24 PM 27.4228 -80.7781 223° Southwest 293 337 14,000  Level Miami Center
Sun 12:32:24 PM 27.3561 -80.8483 223° Southwest 318 366 14,000  Level Miami Center
Sun 12:33:24 PM 27.3003 -80.9072 223° Southwest 323 372 14,000  Level Miami Center
Sun 12:34:24 PM 27.2269 -80.9817 222° Southwest 323 372 14,000 -250 Level Miami Center
Sun 12:35:24 PM 27.1603 -81.0517 223° Southwest 330 380 13,500 -750 Descending Miami Center
Sun 12:36:24 PM 27.0936 -81.1192 222° Southwest 330 380 12,500 -1,100 Descending Miami Center
Sun 12:37:24 PM 27.0269 -81.1889 223° Southwest 330 380 11,300 -1,150 Descending Miami Center
Sun 12:38:24 PM 26.9600 -81.2564 222° Southwest 330 380 10,200 -650 Descending Miami Center
Sun 12:39:24 PM 26.8911 -81.3258 222° Southwest 330 380 10,000 -350 Descending Miami Center
Sun 12:40:24 PM 26.8308 -81.3889 223° Southwest 318 366 9,500 -800 Descending Miami Center
Sun 12:41:24 PM 26.7650 -81.4189 202° Southwest 260 299 8,400 -750 Descending Miami Center
Sun 12:42:24 PM 26.6928 -81.3975 165° South 246 283 8,000 -200 Descending Miami Center
Sun 12:43:24 PM 26.6197 -81.3992 181° South 259 298 8,000 -100 Level Miami Center
Sun 12:44:24 PM 26.5444 -81.4011 181° South 264 304 7,800 -850 Descending Miami Center
Sun 12:45:24 PM 26.4792 -81.4169 192° South 270 311 6,300 -1,400 Descending Miami Center
Sun 12:46:24 PM 26.4100 -81.4283 188° South 270 311 5,000 -1,300 Descending Miami Center
Sun 12:48:00 PM 26.3010 -81.4828 204° Southwest  Level FlightAware Approximate
Sun 12:55:00 PM 26.1500 -81.7667 246° West  Level FlightAware Approximate
Sun 12:56:00 PM 26.1524 -81.7756 246° West  Level Estimated
Sun 12:57:00 PM 26.1524 -81.7756 246° West  Level Estimated
Sun 12:58:00 PM 26.1524 -81.7756 246° West  Level Estimated
Sun 12:59:00 PM 26.1524 -81.7756 246° West  Level Estimated
Sun 01:00:00 PM 26.1524 -81.7756 246° West  Level Estimated
Sun 01:01:00 PM 26.1524 -81.7756 246° West  Level Estimated
Sun 01:02:00 PM 26.1524 -81.7756 246° West  Level Estimated
Sun 01:03:00 PM 26.1524 -81.7756 246° West  Level Estimated
Sun 01:04:00 PM 26.1524 -81.7756 246° West  Level Estimated

Login

Don't have an account? Register now (free) for customized features, flight alerts, and more!